createdAt,value
2023-02-18T00:00:07.488Z,78.83
2023-02-18T00:01:07.499Z,79.14
2023-02-18T00:02:07.526Z,78.83
2023-02-18T00:03:07.492Z,78.69
2023-02-18T00:04:07.483Z,79.14
2023-02-18T00:05:07.433Z,78.93
2023-02-18T00:06:07.797Z,78.93
2023-02-18T00:07:07.404Z,79.03
2023-02-18T00:08:07.438Z,79.03
2023-02-18T00:09:07.379Z,79.24
2023-02-18T00:10:07.449Z,79.24
2023-02-18T00:11:07.360Z,79.03
2023-02-18T00:12:07.348Z,78.93
2023-02-18T00:13:07.338Z,79.24
2023-02-18T00:14:07.331Z,78.97
2023-02-18T00:15:07.326Z,79.27
2023-02-18T00:16:07.734Z,79.27
2023-02-18T00:17:07.318Z,79.07
2023-02-18T00:18:07.292Z,79.27
2023-02-18T00:19:07.304Z,79.07
2023-02-18T00:20:07.253Z,79.07
2023-02-18T00:21:07.264Z,79.00
2023-02-18T00:22:07.277Z,78.97
2023-02-18T00:23:07.255Z,78.97
2023-02-18T00:24:07.217Z,79.00
2023-02-18T00:25:07.205Z,79.00
2023-02-18T00:26:07.558Z,78.97
2023-02-18T00:27:07.198Z,79.11
2023-02-18T00:28:07.239Z,79.11
2023-02-18T00:29:07.160Z,79.31
2023-02-18T00:30:07.310Z,79.11
2023-02-18T00:31:07.208Z,79.00
2023-02-18T00:32:07.170Z,79.00
2023-02-18T00:33:07.135Z,79.00
2023-02-18T00:34:07.172Z,79.21
2023-02-18T00:35:07.127Z,79.00
2023-02-18T00:36:07.410Z,79.00
2023-02-18T00:37:07.088Z,79.00
2023-02-18T00:38:07.060Z,79.00
2023-02-18T00:39:07.058Z,79.00
2023-02-18T00:40:07.218Z,79.00
2023-02-18T00:41:07.058Z,79.00
2023-02-18T00:42:07.014Z,79.00
2023-02-18T00:43:06.999Z,79.00
2023-02-18T00:44:07.035Z,79.00
2023-02-18T00:45:06.975Z,79.11
2023-02-18T00:46:07.405Z,79.00
2023-02-18T00:47:06.967Z,79.00
2023-02-18T00:48:06.952Z,78.80
2023-02-18T00:49:06.940Z,79.00
2023-02-18T00:50:06.921Z,79.21
2023-02-18T00:51:07.019Z,79.07
2023-02-18T00:52:06.941Z,79.17
2023-02-18T00:53:06.893Z,78.97
2023-02-18T00:54:06.885Z,79.17
2023-02-18T00:55:06.869Z,78.97
2023-02-18T00:56:07.366Z,78.97
2023-02-18T00:57:06.860Z,79.27
2023-02-18T00:58:06.852Z,79.17
2023-02-18T00:59:06.832Z,79.38
2023-02-18T01:00:06.823Z,79.55
2023-02-18T01:01:07.698Z,79.55
2023-02-18T01:02:06.797Z,79.24
2023-02-18T01:03:06.777Z,79.17
2023-02-18T01:04:06.802Z,79.03
2023-02-18T01:05:06.760Z,79.07
2023-02-18T01:06:07.100Z,79.14
2023-02-18T01:07:06.781Z,79.24
2023-02-18T01:08:06.726Z,78.93
2023-02-18T01:09:06.720Z,79.14
2023-02-18T01:10:06.738Z,78.72
2023-02-18T01:11:06.710Z,78.86
2023-02-18T01:12:06.741Z,79.07
2023-02-18T01:13:06.701Z,78.97
2023-02-18T01:14:06.661Z,79.07
2023-02-18T01:15:06.653Z,79.07
2023-02-18T01:16:07.121Z,78.97
2023-02-18T01:17:06.624Z,78.97
2023-02-18T01:18:06.617Z,79.21
2023-02-18T01:19:06.619Z,78.90
2023-02-18T01:20:06.596Z,79.17
2023-02-18T01:21:06.587Z,78.86
2023-02-18T01:22:06.617Z,79.31
2023-02-18T01:23:06.589Z,79.00
2023-02-18T01:24:06.585Z,78.90
2023-02-18T01:25:06.541Z,78.90
2023-02-18T01:26:07.120Z,78.80
2023-02-18T01:27:06.518Z,79.00
2023-02-18T01:28:06.544Z,79.55
2023-02-18T01:29:06.515Z,79.52
2023-02-18T01:30:06.533Z,79.21
2023-02-18T01:31:06.638Z,78.80
2023-02-18T01:32:06.712Z,79.21
2023-02-18T01:33:06.453Z,79.25
2023-02-18T01:34:06.479Z,79.25
2023-02-18T01:35:06.438Z,79.35
2023-02-18T01:36:06.838Z,79.45
2023-02-18T01:37:06.411Z,79.14
2023-02-18T01:38:06.391Z,79.25
2023-02-18T01:39:06.409Z,79.14
2023-02-18T01:40:06.483Z,79.55
2023-02-18T01:41:06.368Z,79.14
2023-02-18T01:42:06.360Z,79.66
2023-02-18T01:43:06.342Z,79.55
2023-02-18T01:44:06.325Z,78.94
2023-02-18T01:45:06.320Z,79.04
2023-02-18T01:46:06.807Z,79.25
2023-02-18T01:47:06.294Z,78.80
2023-02-18T01:48:06.279Z,78.90
2023-02-18T01:49:06.271Z,79.21
2023-02-18T01:50:06.253Z,79.21
2023-02-18T01:51:06.245Z,79.25
2023-02-18T01:52:06.271Z,78.94
2023-02-18T01:53:06.221Z,79.76
2023-02-18T01:54:06.216Z,79.93
2023-02-18T01:55:06.237Z,79.04
2023-02-18T01:56:06.461Z,79.21
2023-02-18T01:57:06.195Z,78.80
2023-02-18T01:58:06.192Z,78.90
2023-02-18T01:59:06.175Z,78.94
2023-02-18T02:00:06.145Z,79.31
2023-02-18T02:01:06.216Z,79.21
2023-02-18T02:02:06.199Z,79.11
2023-02-18T02:03:06.115Z,79.21
2023-02-18T02:04:06.124Z,78.94
2023-02-18T02:05:06.094Z,78.94
2023-02-18T02:06:06.466Z,79.04
2023-02-18T02:07:06.068Z,79.21
2023-02-18T02:08:06.059Z,79.14
2023-02-18T02:09:06.044Z,79.25
2023-02-18T02:10:06.050Z,79.55
2023-02-18T02:11:06.044Z,79.86
2023-02-18T02:12:06.043Z,79.83
2023-02-18T02:13:06.007Z,79.55
2023-02-18T02:14:05.992Z,79.83
2023-02-18T02:15:05.989Z,79.11
2023-02-18T02:16:06.340Z,79.72
2023-02-18T02:17:05.953Z,79.62
2023-02-18T02:18:05.984Z,79.52
2023-02-18T02:19:05.933Z,79.52
2023-02-18T02:20:05.969Z,79.83
2023-02-18T02:21:05.909Z,79.55
2023-02-18T02:22:05.914Z,79.83
2023-02-18T02:23:05.897Z,79.72
2023-02-18T02:24:05.878Z,79.83
2023-02-18T02:25:05.879Z,79.21
2023-02-18T02:26:06.270Z,79.83
2023-02-18T02:27:06.986Z,79.00
2023-02-18T02:28:05.976Z,79.11
2023-02-18T02:29:05.837Z,79.83
2023-02-18T02:30:05.904Z,79.76
2023-02-18T02:31:05.866Z,79.83
2023-02-18T02:32:05.803Z,79.25
2023-02-18T02:33:05.779Z,79.21
2023-02-18T02:34:05.892Z,79.21
2023-02-18T02:35:05.757Z,79.25
2023-02-18T02:36:05.990Z,79.04
2023-02-18T02:37:05.746Z,79.04
2023-02-18T02:38:05.744Z,79.76
2023-02-18T02:39:05.713Z,79.66
2023-02-18T02:40:05.736Z,79.55
2023-02-18T02:41:05.695Z,79.76
2023-02-18T02:42:05.682Z,79.76
2023-02-18T02:43:05.690Z,79.86
2023-02-18T02:44:05.673Z,79.55
2023-02-18T02:45:05.642Z,79.55
2023-02-18T02:46:05.921Z,79.66
2023-02-18T02:47:05.629Z,79.76
2023-02-18T02:48:05.622Z,79.76
2023-02-18T02:49:05.612Z,79.38
2023-02-18T02:50:05.597Z,79.80
2023-02-18T02:51:05.590Z,79.86
2023-02-18T02:52:05.605Z,79.59
2023-02-18T02:53:06.600Z,79.80
2023-02-18T02:54:05.556Z,79.49
2023-02-18T02:55:05.559Z,79.66
2023-02-18T02:56:05.712Z,79.69
2023-02-18T02:57:05.514Z,79.08
2023-02-18T02:58:05.673Z,79.80
2023-02-18T02:59:05.514Z,79.69
2023-02-18T03:00:05.494Z,79.38
2023-02-18T03:01:05.600Z,79.90
2023-02-18T03:02:05.462Z,79.90
2023-02-18T03:03:05.483Z,79.59
2023-02-18T03:04:05.480Z,79.80
2023-02-18T03:05:05.432Z,79.69
2023-02-18T03:06:05.680Z,79.69
2023-02-18T03:07:05.406Z,79.80
2023-02-18T03:08:05.446Z,79.66
2023-02-18T03:09:05.383Z,79.90
2023-02-18T03:10:05.393Z,79.90
2023-02-18T03:11:05.362Z,79.86
2023-02-18T03:12:05.381Z,79.45
2023-02-18T03:13:05.346Z,79.76
2023-02-18T03:14:05.460Z,79.76
2023-02-18T03:15:05.350Z,79.86
2023-02-18T03:16:05.410Z,79.76
2023-02-18T03:17:05.293Z,79.86
2023-02-18T03:18:05.290Z,79.66
2023-02-18T03:19:05.273Z,79.55
2023-02-18T03:20:05.282Z,79.86
2023-02-18T03:21:05.261Z,79.66
2023-02-18T03:22:05.301Z,79.86
2023-02-18T03:23:05.228Z,79.86
2023-02-18T03:24:05.285Z,79.66
2023-02-18T03:25:05.208Z,79.55
2023-02-18T03:26:05.253Z,79.55
2023-02-18T03:27:05.189Z,79.52
2023-02-18T03:28:05.279Z,79.55
2023-02-18T03:29:05.165Z,79.97
2023-02-18T03:30:05.262Z,80.04
2023-02-18T03:31:05.210Z,79.52
2023-02-18T03:32:05.216Z,79.62
2023-02-18T03:33:05.131Z,79.52
2023-02-18T03:34:05.129Z,79.52
2023-02-18T03:35:05.105Z,79.31
2023-02-18T03:36:05.107Z,79.52
2023-02-18T03:37:05.080Z,79.52
2023-02-18T03:38:05.063Z,79.52
2023-02-18T03:39:05.054Z,79.41
2023-02-18T03:40:05.095Z,79.62
2023-02-18T03:41:05.045Z,79.62
2023-02-18T03:42:05.043Z,79.72
2023-02-18T03:43:05.031Z,79.52
2023-02-18T03:44:04.999Z,79.83
2023-02-18T03:45:04.983Z,79.83
2023-02-18T03:46:05.104Z,80.14
2023-02-18T03:47:04.992Z,79.72
2023-02-18T03:48:04.995Z,79.72
2023-02-18T03:49:04.946Z,80.24
2023-02-18T03:50:04.943Z,79.62
2023-02-18T03:51:04.915Z,80.34
2023-02-18T03:52:04.961Z,79.93
2023-02-18T03:53:04.904Z,80.04
2023-02-18T03:54:04.912Z,80.34
2023-02-18T03:55:04.881Z,79.83
2023-02-18T03:56:04.901Z,80.14
2023-02-18T03:57:04.844Z,80.14
2023-02-18T03:58:04.911Z,80.41
2023-02-18T03:59:04.832Z,80.41
2023-02-18T04:00:04.831Z,79.48
2023-02-18T04:01:04.831Z,79.79
2023-02-18T04:02:04.799Z,79.48
2023-02-18T04:03:04.802Z,79.72
2023-02-18T04:04:04.927Z,79.72
2023-02-18T04:05:04.755Z,79.72
2023-02-18T04:06:04.761Z,80.20
2023-02-18T04:07:04.739Z,80.14
2023-02-18T04:08:04.740Z,80.44
2023-02-18T04:09:04.710Z,80.55
2023-02-18T04:10:04.739Z,80.51
2023-02-18T04:11:04.691Z,80.62
2023-02-18T04:12:04.689Z,80.51
2023-02-18T04:13:04.664Z,80.51
2023-02-18T04:14:04.652Z,80.30
2023-02-18T04:15:04.652Z,80.62
2023-02-18T04:16:04.663Z,80.72
2023-02-18T04:17:04.628Z,80.68
2023-02-18T04:18:04.634Z,80.72
2023-02-18T04:19:04.619Z,80.72
2023-02-18T04:20:04.602Z,80.62
2023-02-18T04:21:04.569Z,80.51
2023-02-18T04:22:04.575Z,80.30
2023-02-18T04:23:04.556Z,80.62
2023-02-18T04:24:04.551Z,80.62
2023-02-18T04:25:04.537Z,80.82
2023-02-18T04:26:04.525Z,80.51
2023-02-18T04:27:04.506Z,80.62
2023-02-18T04:28:04.533Z,80.62
2023-02-18T04:29:04.482Z,80.51
2023-02-18T04:30:04.522Z,80.62
2023-02-18T04:31:04.661Z,80.51
2023-02-18T04:32:04.515Z,80.30
2023-02-18T04:33:04.445Z,80.20
2023-02-18T04:34:04.514Z,80.20
2023-02-18T04:35:04.471Z,80.20
2023-02-18T04:36:04.407Z,80.62
2023-02-18T04:37:04.395Z,80.34
2023-02-18T04:38:04.393Z,80.44
2023-02-18T04:39:04.372Z,79.17
2023-02-18T04:40:04.417Z,80.76
2023-02-18T04:41:04.349Z,80.76
2023-02-18T04:42:04.342Z,80.93
2023-02-18T04:43:04.329Z,81.03
2023-02-18T04:44:04.321Z,80.86
2023-02-18T04:45:04.349Z,80.76
2023-02-18T04:46:04.419Z,80.76
2023-02-18T04:47:04.287Z,80.65
2023-02-18T04:48:04.275Z,80.65
2023-02-18T04:49:04.306Z,80.96
2023-02-18T04:50:04.251Z,80.96
2023-02-18T04:51:04.277Z,81.07
2023-02-18T04:52:04.266Z,80.96
2023-02-18T04:53:04.220Z,81.07
2023-02-18T04:54:04.208Z,80.96
2023-02-18T04:55:04.201Z,80.90
2023-02-18T04:56:04.184Z,81.00
2023-02-18T04:57:04.177Z,81.00
2023-02-18T04:58:04.227Z,80.90
2023-02-18T04:59:04.156Z,81.00
2023-02-18T05:00:04.140Z,80.90
2023-02-18T05:01:04.160Z,80.90
2023-02-18T05:02:04.121Z,80.69
2023-02-18T05:03:04.130Z,80.93
2023-02-18T05:04:04.217Z,80.69
2023-02-18T05:05:04.087Z,80.73
2023-02-18T05:06:04.083Z,80.90
2023-02-18T05:07:04.091Z,81.04
2023-02-18T05:08:04.049Z,80.93
2023-02-18T05:09:04.065Z,80.73
2023-02-18T05:10:04.062Z,80.73
2023-02-18T05:11:04.020Z,80.58
2023-02-18T05:12:04.010Z,80.69
2023-02-18T05:13:04.000Z,80.83
2023-02-18T05:14:03.990Z,80.83
2023-02-18T05:15:03.989Z,80.32
2023-02-18T05:16:04.081Z,80.83
2023-02-18T05:17:03.967Z,80.83
2023-02-18T05:18:03.949Z,80.32
2023-02-18T05:19:03.932Z,80.73
2023-02-18T05:20:03.928Z,81.04
2023-02-18T05:21:03.912Z,80.83
2023-02-18T05:22:03.913Z,80.79
2023-02-18T05:23:03.917Z,80.21
2023-02-18T05:24:03.900Z,81.00
2023-02-18T05:25:03.869Z,81.24
2023-02-18T05:26:03.859Z,80.52
2023-02-18T05:27:03.862Z,80.32
2023-02-18T05:28:03.925Z,81.24
2023-02-18T05:29:03.817Z,80.32
2023-02-18T05:30:03.849Z,80.32
2023-02-18T05:31:03.969Z,80.83
2023-02-18T05:32:03.814Z,80.83
2023-02-18T05:33:03.786Z,80.83
2023-02-18T05:34:03.796Z,80.62
2023-02-18T05:35:03.778Z,81.04
2023-02-18T05:36:03.744Z,80.83
2023-02-18T05:37:03.737Z,80.83
2023-02-18T05:38:03.767Z,80.52
2023-02-18T05:39:03.741Z,80.73
2023-02-18T05:40:03.893Z,81.14
2023-02-18T05:41:03.695Z,81.04
2023-02-18T05:42:03.692Z,80.52
2023-02-18T05:43:03.684Z,80.73
2023-02-18T05:44:03.660Z,81.28
2023-02-18T05:45:03.649Z,80.32
2023-02-18T05:46:03.706Z,80.42
2023-02-18T05:47:03.624Z,81.14
2023-02-18T05:48:03.611Z,81.14
2023-02-18T05:49:03.623Z,80.97
2023-02-18T05:50:03.626Z,80.97
2023-02-18T05:51:03.580Z,80.87
2023-02-18T05:52:03.599Z,81.28
2023-02-18T05:53:03.567Z,80.87
2023-02-18T05:54:03.549Z,80.97
2023-02-18T05:55:03.586Z,80.97
2023-02-18T05:56:03.520Z,80.97
2023-02-18T05:57:03.511Z,80.87
2023-02-18T05:58:03.573Z,81.18
2023-02-18T05:59:03.493Z,80.97
2023-02-18T06:00:03.480Z,81.28
2023-02-18T06:01:03.468Z,80.87
2023-02-18T06:02:03.455Z,81.07
2023-02-18T06:03:03.633Z,80.87
2023-02-18T06:04:03.482Z,80.97
2023-02-18T06:05:03.421Z,80.76
2023-02-18T06:06:03.492Z,81.07
2023-02-18T06:07:03.406Z,80.97
2023-02-18T06:08:03.385Z,80.76
2023-02-18T06:09:03.383Z,80.76
2023-02-18T06:10:03.413Z,80.46
2023-02-18T06:11:03.386Z,80.76
2023-02-18T06:12:03.366Z,80.87
2023-02-18T06:13:03.328Z,80.87
2023-02-18T06:14:03.333Z,80.97
2023-02-18T06:15:03.321Z,80.76
2023-02-18T06:16:03.400Z,81.04
2023-02-18T06:17:03.301Z,80.83
2023-02-18T06:18:03.278Z,80.97
2023-02-18T06:19:03.282Z,81.24
2023-02-18T06:20:03.441Z,81.04
2023-02-18T06:21:03.244Z,81.35
2023-02-18T06:22:03.263Z,80.66
2023-02-18T06:23:03.262Z,81.14
2023-02-18T06:24:03.229Z,81.18
2023-02-18T06:25:03.196Z,81.07
2023-02-18T06:26:03.192Z,81.04
2023-02-18T06:27:03.302Z,80.93
2023-02-18T06:28:03.201Z,80.83
2023-02-18T06:29:03.155Z,80.83
2023-02-18T06:30:03.285Z,81.14
2023-02-18T06:31:03.302Z,80.97
2023-02-18T06:32:03.241Z,81.24
2023-02-18T06:33:03.112Z,81.04
2023-02-18T06:34:03.127Z,81.24
2023-02-18T06:35:03.085Z,81.14
2023-02-18T06:36:03.069Z,81.31
2023-02-18T06:37:03.059Z,81.21
2023-02-18T06:38:03.053Z,81.21
2023-02-18T06:39:03.119Z,81.10
2023-02-18T06:40:03.076Z,81.00
2023-02-18T06:41:03.015Z,80.90
2023-02-18T06:42:03.128Z,81.00
2023-02-18T06:43:03.025Z,81.00
2023-02-18T06:44:02.981Z,80.79
2023-02-18T06:45:02.981Z,80.86
2023-02-18T06:46:02.988Z,80.96
2023-02-18T06:47:02.945Z,80.79
2023-02-18T06:48:02.938Z,81.07
2023-02-18T06:49:02.924Z,80.86
2023-02-18T06:50:02.927Z,80.76
2023-02-18T06:51:02.901Z,80.96
2023-02-18T06:52:02.922Z,80.86
2023-02-18T06:53:02.929Z,80.96
2023-02-18T06:54:02.878Z,81.27
2023-02-18T06:55:02.872Z,81.07
2023-02-18T06:56:02.845Z,80.76
2023-02-18T06:57:02.868Z,80.96
2023-02-18T06:58:02.857Z,80.82
2023-02-18T06:59:02.846Z,81.13
2023-02-18T07:00:02.802Z,80.93
2023-02-18T07:01:02.839Z,81.13
2023-02-18T07:02:02.789Z,81.03
2023-02-18T07:03:02.799Z,80.93
2023-02-18T07:04:02.816Z,81.03
2023-02-18T07:05:02.748Z,81.03
2023-02-18T07:06:02.762Z,80.72
2023-02-18T07:07:02.725Z,80.82
2023-02-18T07:08:02.706Z,80.82
2023-02-18T07:09:02.701Z,80.79
2023-02-18T07:10:02.750Z,80.89
2023-02-18T07:11:02.713Z,80.99
2023-02-18T07:12:02.676Z,80.79
2023-02-18T07:13:02.692Z,81.13
2023-02-18T07:14:02.645Z,80.89
2023-02-18T07:15:02.662Z,81.09
2023-02-18T07:16:02.719Z,80.99
2023-02-18T07:17:02.615Z,80.79
2023-02-18T07:18:02.603Z,80.79
2023-02-18T07:19:02.591Z,80.95
2023-02-18T07:20:02.581Z,81.09
2023-02-18T07:21:02.602Z,80.75
2023-02-18T07:22:02.619Z,80.89
2023-02-18T07:23:02.552Z,81.05
2023-02-18T07:24:02.537Z,80.95
2023-02-18T07:25:02.534Z,80.95
2023-02-18T07:26:02.530Z,80.95
2023-02-18T07:27:02.494Z,80.95
2023-02-18T07:28:02.518Z,80.85
2023-02-18T07:29:02.471Z,80.85
2023-02-18T07:30:02.518Z,80.95
2023-02-18T07:31:02.510Z,80.75
2023-02-18T07:32:02.491Z,81.67
2023-02-18T07:33:04.039Z,81.05
2023-02-18T07:34:02.451Z,80.95
2023-02-18T07:35:02.415Z,80.95
2023-02-18T07:36:02.392Z,80.81
2023-02-18T07:37:02.392Z,80.61
2023-02-18T07:38:02.368Z,80.71
2023-02-18T07:39:02.363Z,80.91
2023-02-18T07:40:02.399Z,80.81
2023-02-18T07:41:02.343Z,80.81
2023-02-18T07:42:02.340Z,80.91
2023-02-18T07:43:02.317Z,80.71
2023-02-18T07:44:02.312Z,81.12
2023-02-18T07:45:02.301Z,80.91
2023-02-18T07:46:02.393Z,80.91
2023-02-18T07:47:02.307Z,80.81
2023-02-18T07:48:02.265Z,80.77
2023-02-18T07:49:02.291Z,81.02
2023-02-18T07:50:02.247Z,81.09
2023-02-18T07:51:02.246Z,80.88
2023-02-18T07:52:03.883Z,80.88
2023-02-18T07:53:02.221Z,80.67
2023-02-18T07:54:02.201Z,80.88
2023-02-18T07:55:02.209Z,80.88
2023-02-18T07:56:02.191Z,80.84
2023-02-18T07:57:02.162Z,81.15
2023-02-18T07:58:02.347Z,80.74
2023-02-18T07:59:02.141Z,80.53
2023-02-18T08:00:02.194Z,80.33
2023-02-18T08:01:02.124Z,80.49
2023-02-18T08:02:02.150Z,81.01
2023-02-18T08:03:02.125Z,80.49
2023-02-18T08:04:02.170Z,80.91
2023-02-18T08:05:02.079Z,80.29
2023-02-18T08:06:02.102Z,80.49
2023-02-18T08:07:02.056Z,80.35
2023-02-18T08:08:02.046Z,80.70
2023-02-18T08:09:02.031Z,80.49
2023-02-18T08:10:02.076Z,80.35
2023-02-18T08:11:07.109Z,80.46
2023-02-18T08:12:02.996Z,80.46
2023-02-18T08:13:01.996Z,80.46
2023-02-18T08:14:01.981Z,80.56
2023-02-18T08:15:01.966Z,80.66
2023-02-18T08:16:02.002Z,80.35
2023-02-18T08:17:02.001Z,80.25
2023-02-18T08:18:01.950Z,80.46
2023-02-18T08:19:01.947Z,80.42
2023-02-18T08:20:01.922Z,80.01
2023-02-18T08:21:01.904Z,80.11
2023-02-18T08:22:01.940Z,80.11
2023-02-18T08:23:01.875Z,80.79
2023-02-18T08:24:01.954Z,80.49
2023-02-18T08:25:01.888Z,80.07
2023-02-18T08:26:01.858Z,80.07
2023-02-18T08:27:01.925Z,80.01
2023-02-18T08:28:01.886Z,80.32
2023-02-18T08:29:01.824Z,80.01
2023-02-18T08:30:01.841Z,79.87
2023-02-18T08:31:01.969Z,80.07
2023-02-18T08:32:01.841Z,80.07
2023-02-18T08:33:01.766Z,80.49
2023-02-18T08:34:01.797Z,80.18
2023-02-18T08:35:01.769Z,80.38
2023-02-18T08:36:01.738Z,80.24
2023-02-18T08:37:01.733Z,80.76
2023-02-18T08:38:01.712Z,80.14
2023-02-18T08:39:01.704Z,79.73
2023-02-18T08:40:01.724Z,80.55
2023-02-18T08:41:01.685Z,80.35
2023-02-18T08:42:01.677Z,80.45
2023-02-18T08:43:01.661Z,80.41
2023-02-18T08:44:01.642Z,80.35
2023-02-18T08:45:01.634Z,80.04
2023-02-18T08:46:01.717Z,80.45
2023-02-18T08:47:01.626Z,80.00
2023-02-18T08:48:17.202Z,80.21
2023-02-18T08:49:02.614Z,80.10
2023-02-18T08:50:01.580Z,80.82
2023-02-18T08:51:01.605Z,80.51
2023-02-18T08:52:01.616Z,80.51
2023-02-18T08:53:01.553Z,80.41
2023-02-18T08:54:01.568Z,80.41
2023-02-18T08:55:01.523Z,80.41
2023-02-18T08:56:01.518Z,80.47
2023-02-18T08:57:01.503Z,80.37
2023-02-18T08:58:01.532Z,80.68
2023-02-18T08:59:01.505Z,80.51
2023-02-18T09:00:01.478Z,80.72
2023-02-18T09:01:01.518Z,80.51
2023-02-18T09:02:02.110Z,80.47
2023-02-18T09:03:01.446Z,80.51
2023-02-18T09:04:01.578Z,80.41
2023-02-18T09:05:01.419Z,80.51
2023-02-18T09:06:01.521Z,80.82
2023-02-18T09:07:01.408Z,80.55
2023-02-18T09:08:01.380Z,80.10
2023-02-18T09:09:01.362Z,80.72
2023-02-18T09:10:01.365Z,80.04
2023-02-18T09:11:01.367Z,80.00
2023-02-18T09:12:01.335Z,80.21
2023-02-18T09:13:01.317Z,80.51
2023-02-18T09:14:01.315Z,79.90
2023-02-18T09:15:01.303Z,80.10
2023-02-18T09:16:01.375Z,80.31
2023-02-18T09:17:01.278Z,80.00
2023-02-18T09:18:01.266Z,80.51
2023-02-18T09:19:01.252Z,80.58
2023-02-18T09:20:01.237Z,80.07
2023-02-18T09:21:01.244Z,80.27
2023-02-18T09:22:01.254Z,79.75
2023-02-18T09:23:01.226Z,80.27
2023-02-18T09:24:01.210Z,80.03
2023-02-18T09:25:01.186Z,80.33
2023-02-18T09:26:01.194Z,80.13
2023-02-18T09:27:01.159Z,80.30
2023-02-18T09:28:01.298Z,80.30
2023-02-18T09:29:01.139Z,80.19
2023-02-18T09:30:01.203Z,79.89
2023-02-18T09:31:01.161Z,80.19
2023-02-18T09:32:01.186Z,80.19
2023-02-18T09:33:01.087Z,80.05
2023-02-18T09:34:01.185Z,80.36
2023-02-18T09:35:01.076Z,80.26
2023-02-18T09:36:01.060Z,79.82
2023-02-18T09:37:01.057Z,80.22
2023-02-18T09:38:01.036Z,80.43
2023-02-18T09:39:01.061Z,80.33
2023-02-18T09:40:01.054Z,79.82
2023-02-18T09:41:01.098Z,80.29
2023-02-18T09:42:00.987Z,80.08
2023-02-18T09:43:00.979Z,80.19
2023-02-18T09:44:00.962Z,80.19
2023-02-18T09:45:00.966Z,80.15
2023-02-18T09:46:00.995Z,79.94
2023-02-18T09:47:00.957Z,80.05
2023-02-18T09:48:00.925Z,80.05
2023-02-18T09:49:00.925Z,80.05
2023-02-18T09:50:00.901Z,80.11
2023-02-18T09:51:00.898Z,80.11
2023-02-18T09:52:00.907Z,80.11
2023-02-18T09:53:00.878Z,80.01
2023-02-18T09:54:00.854Z,79.87
2023-02-18T09:55:00.875Z,80.11
2023-02-18T09:56:00.826Z,79.70
2023-02-18T09:57:00.818Z,80.07
2023-02-18T09:58:00.829Z,80.18
2023-02-18T09:59:00.833Z,79.87
2023-02-18T10:00:00.793Z,80.18
2023-02-18T10:01:00.776Z,79.87
2023-02-18T10:02:02.455Z,79.87
2023-02-18T10:03:00.775Z,79.87
2023-02-18T10:04:00.785Z,79.97
2023-02-18T10:05:00.750Z,79.73
2023-02-18T10:06:00.727Z,79.77
2023-02-18T10:07:00.713Z,80.14
2023-02-18T10:08:00.714Z,80.14
2023-02-18T10:09:00.713Z,79.93
2023-02-18T10:10:00.754Z,80.04
2023-02-18T10:11:00.733Z,79.83
2023-02-18T10:12:00.677Z,80.04
2023-02-18T10:13:00.639Z,79.93
2023-02-18T10:14:00.647Z,79.90
2023-02-18T10:15:00.632Z,79.80
2023-02-18T10:16:00.753Z,80.71
2023-02-18T10:17:00.603Z,80.10
2023-02-18T10:18:00.583Z,79.90
2023-02-18T10:19:00.575Z,80.20
2023-02-18T10:20:01.494Z,79.86
2023-02-18T10:21:00.555Z,80.07
2023-02-18T10:22:00.648Z,80.07
2023-02-18T10:23:00.526Z,80.02
2023-02-18T10:24:00.544Z,79.72
2023-02-18T10:25:00.522Z,79.48
2023-02-18T10:26:00.496Z,79.07
2023-02-18T10:27:00.510Z,79.95
2023-02-18T10:28:00.580Z,79.44
2023-02-18T10:29:00.461Z,79.64
2023-02-18T10:30:00.494Z,79.61
2023-02-18T10:31:00.570Z,79.50
2023-02-18T10:32:00.591Z,79.50
2023-02-18T10:33:00.422Z,79.20
2023-02-18T10:34:00.457Z,78.96
2023-02-18T10:35:00.570Z,79.47
2023-02-18T10:36:00.385Z,79.16
2023-02-18T10:37:00.367Z,79.16
2023-02-18T10:38:00.365Z,79.37
2023-02-18T10:39:00.366Z,79.47
2023-02-18T10:40:00.369Z,79.88
2023-02-18T10:41:00.390Z,79.74
2023-02-18T10:42:00.320Z,79.84
2023-02-18T10:43:00.335Z,79.63
2023-02-18T10:44:00.294Z,79.53
2023-02-18T10:45:00.351Z,80.04
2023-02-18T10:46:00.319Z,79.84
2023-02-18T10:47:00.259Z,80.15
2023-02-18T10:48:00.252Z,80.15
2023-02-18T10:49:00.389Z,80.15
2023-02-18T10:50:00.241Z,80.31
2023-02-18T10:51:00.236Z,80.35
2023-02-18T10:52:00.229Z,80.15
2023-02-18T10:53:00.214Z,80.35
2023-02-18T10:54:00.182Z,80.35
2023-02-18T10:55:00.195Z,80.35
2023-02-18T10:56:00.377Z,80.21
2023-02-18T10:57:00.171Z,80.11
2023-02-18T10:58:00.168Z,80.21
2023-02-18T10:59:00.227Z,80.45
2023-02-18T11:00:00.135Z,80.35
2023-02-18T11:01:00.140Z,80.72
2023-02-18T11:02:00.270Z,80.55
2023-02-18T11:03:00.120Z,80.76
2023-02-18T11:04:00.113Z,80.76
2023-02-18T11:05:00.203Z,80.65
2023-02-18T11:06:00.047Z,80.76
2023-02-18T11:07:00.071Z,80.45
2023-02-18T11:08:00.037Z,81.57
2023-02-18T11:09:00.107Z,81.26
2023-02-18T11:10:00.023Z,81.37
2023-02-18T11:10:59.991Z,81.26
2023-02-18T11:12:07.856Z,81.37
2023-02-18T11:13:00.990Z,81.16
2023-02-18T11:13:59.972Z,81.37
2023-02-18T11:14:59.972Z,81.16
2023-02-18T11:16:00.176Z,81.37
2023-02-18T11:16:59.917Z,81.37
2023-02-18T11:17:59.969Z,81.26
2023-02-18T11:18:59.895Z,81.26
2023-02-18T11:19:59.978Z,81.26
2023-02-18T11:20:59.871Z,81.37
2023-02-18T11:21:59.977Z,81.26
2023-02-18T11:22:59.855Z,81.37
2023-02-18T11:23:59.913Z,81.57
2023-02-18T11:24:59.829Z,81.67
2023-02-18T11:25:59.822Z,81.37
2023-02-18T11:26:59.826Z,81.26
2023-02-18T11:27:59.825Z,81.12
2023-02-18T11:28:59.790Z,81.67
2023-02-18T11:29:59.841Z,81.37
2023-02-18T11:30:59.971Z,81.33
2023-02-18T11:31:59.887Z,81.77
2023-02-18T11:32:59.740Z,81.26
2023-02-18T11:33:59.766Z,81.16
2023-02-18T11:34:59.721Z,81.16
2023-02-18T11:35:59.712Z,81.23
2023-02-18T11:36:59.764Z,81.77
2023-02-18T11:37:59.690Z,81.23
2023-02-18T11:38:59.680Z,81.33
2023-02-18T11:39:59.754Z,81.23
2023-02-18T11:40:59.651Z,81.23
2023-02-18T11:41:59.644Z,81.33
2023-02-18T11:42:59.639Z,81.43
2023-02-18T11:43:59.621Z,81.33
2023-02-18T11:44:59.678Z,81.33
2023-02-18T11:45:59.636Z,81.23
2023-02-18T11:46:59.798Z,81.23
2023-02-18T11:47:59.571Z,81.02
2023-02-18T11:48:59.577Z,81.33
2023-02-18T11:49:59.557Z,81.02
2023-02-18T11:50:59.560Z,81.33
2023-02-18T11:51:59.554Z,81.33
2023-02-18T11:52:59.524Z,81.06
2023-02-18T11:53:59.501Z,81.16
2023-02-18T11:54:59.503Z,81.67
2023-02-18T11:55:59.552Z,81.60
2023-02-18T11:56:59.492Z,81.60
2023-02-18T11:57:59.556Z,81.51
2023-02-18T11:58:59.461Z,81.95
2023-02-18T11:59:59.451Z,82.05
2023-02-18T12:00:59.432Z,82.40
2023-02-18T12:02:01.615Z,81.99
2023-02-18T12:02:59.454Z,82.19
2023-02-18T12:03:59.489Z,82.64
2023-02-18T12:04:59.438Z,82.33
2023-02-18T12:05:59.378Z,82.74
2023-02-18T12:06:59.365Z,82.94
2023-02-18T12:07:59.355Z,82.94
2023-02-18T12:08:59.339Z,82.68
2023-02-18T12:09:59.479Z,82.57
2023-02-18T12:10:59.324Z,82.68
2023-02-18T12:12:00.265Z,82.47
2023-02-18T12:12:59.302Z,82.78
2023-02-18T12:13:59.306Z,82.47
2023-02-18T12:14:59.283Z,82.71
2023-02-18T12:15:59.326Z,82.82
2023-02-18T12:16:59.266Z,82.65
2023-02-18T12:17:59.242Z,82.75
2023-02-18T12:18:59.290Z,82.65
2023-02-18T12:19:59.286Z,82.86
2023-02-18T12:20:59.213Z,83.26
2023-02-18T12:21:59.260Z,83.26
2023-02-18T12:22:59.186Z,82.79
2023-02-18T12:23:59.179Z,82.79
2023-02-18T12:24:59.164Z,83.26
2023-02-18T12:25:59.157Z,83.30
2023-02-18T12:26:59.144Z,83.06
2023-02-18T12:27:59.280Z,82.69
2023-02-18T12:28:59.121Z,82.69
2023-02-18T12:29:59.177Z,83.00
2023-02-18T12:30:59.142Z,83.30
2023-02-18T12:31:59.104Z,83.04
2023-02-18T12:32:59.089Z,83.14
2023-02-18T12:33:59.119Z,83.44
2023-02-18T12:34:59.076Z,83.54
2023-02-18T12:35:59.041Z,83.14
2023-02-18T12:36:59.030Z,83.24
2023-02-18T12:37:59.027Z,83.24
2023-02-18T12:38:59.030Z,83.28
2023-02-18T12:39:59.026Z,83.54
2023-02-18T12:40:59.023Z,83.24
2023-02-18T12:41:59.005Z,83.28
2023-02-18T12:42:58.986Z,83.34
2023-02-18T12:43:58.943Z,83.38
2023-02-18T12:44:58.966Z,83.24
2023-02-18T12:45:59.121Z,83.24
2023-02-18T12:46:58.914Z,83.14
2023-02-18T12:47:58.952Z,83.44
2023-02-18T12:48:58.886Z,82.93
2023-02-18T12:49:58.892Z,83.34
2023-02-18T12:50:58.891Z,83.14
2023-02-18T12:51:58.926Z,83.04